Time;durP1;ratioP1;P1;durP2;ratioP2;P2;SDS_P1;SDS_P2;PMS_P1;PMS_P2;Temp;Humidity;BMP_temperature;BMP_pressure;BME280_temperature;BME280_humidity;BME280_pressure;Samples;Min_cycle;Max_cycle;Signal;HPM_P1;HPM_P2
2021/06/28 00:00:43;;;;;;;10.23;8.95;;;17.20;99.90;;;;;;5027559;28;20053;-43
2021/06/28 00:03:11;;;;;;;10.90;8.27;;;17.10;99.90;;;;;;5026427;28;20095;-45
2021/06/28 00:05:39;;;;;;;10.20;8.02;;;17.10;99.90;;;;;;5024426;28;20486;-42
2021/06/28 00:08:06;;;;;;;9.18;8.20;;;17.00;99.90;;;;;;5020066;28;20057;-44
2021/06/28 00:10:32;;;;;;;10.82;8.82;;;17.00;99.90;;;;;;5011414;28;20675;-45
2021/06/28 00:13:01;;;;;;;9.50;8.50;;;17.00;99.90;;;;;;5025562;28;20041;-42
2021/06/28 00:15:30;;;;;;;8.75;7.75;;;17.00;99.90;;;;;;5015033;28;20044;-43
2021/06/28 00:17:57;;;;;;;10.82;9.73;;;16.90;99.90;;;;;;5014957;28;20713;-43
2021/06/28 00:20:23;;;;;;;10.50;9.38;;;16.90;99.90;;;;;;5025698;28;20568;-44
2021/06/28 00:22:49;;;;;;;11.60;9.32;;;16.80;99.90;;;;;;5022334;28;20049;-44
2021/06/28 00:25:18;;;;;;;12.13;9.57;;;16.90;99.90;;;;;;5035188;28;20048;-43
2021/06/28 00:27:45;;;;;;;10.55;9.25;;;16.80;99.90;;;;;;5024953;28;20266;-44
2021/06/28 00:30:15;;;;;;;12.95;9.90;;;16.80;99.90;;;;;;5025810;28;20041;-44
2021/06/28 00:32:45;;;;;;;14.25;8.90;;;16.80;99.90;;;;;;5026473;28;20140;-44
2021/06/28 00:35:12;;;;;;;10.93;9.25;;;16.70;99.90;;;;;;5026169;28;20401;-42
2021/06/28 00:37:42;;;;;;;11.80;10.52;;;16.60;99.90;;;;;;5026673;28;20049;-44
2021/06/28 00:40:11;;;;;;;13.15;10.35;;;16.70;99.90;;;;;;5024414;28;20104;-46
2021/06/28 00:42:37;;;;;;;11.27;9.75;;;16.60;99.90;;;;;;5023368;28;20434;-43
2021/06/28 00:45:18;;;;;;;13.30;10.00;;;16.60;99.90;;;;;;5025405;28;20164;-42
2021/06/28 00:47:46;;;;;;;12.02;10.38;;;16.60;99.90;;;;;;5023942;28;20057;-42
2021/06/28 00:50:14;;;;;;;11.65;9.80;;;16.60;99.90;;;;;;5025949;28;20049;-43
2021/06/28 00:52:41;;;;;;;14.65;10.43;;;16.50;99.90;;;;;;5027025;28;20764;-42
2021/06/28 00:55:14;;;;;;;12.43;10.32;;;16.50;99.90;;;;;;5024160;28;20045;-42
2021/06/28 00:57:40;;;;;;;11.30;10.10;;;16.40;99.90;;;;;;5020172;28;20124;-42
2021/06/28 01:00:09;;;;;;;13.93;11.27;;;16.50;99.90;;;;;;5022189;28;20057;-42
2021/06/28 01:02:36;;;;;;;13.80;10.80;;;16.50;99.90;;;;;;5024543;28;20127;-43
2021/06/28 01:05:06;;;;;;;15.65;11.82;;;16.40;99.90;;;;;;5024007;28;20616;-44
2021/06/28 01:07:32;;;;;;;14.52;10.98;;;16.40;99.90;;;;;;5022917;28;20641;-42
2021/06/28 01:09:58;;;;;;;12.48;10.77;;;16.30;99.90;;;;;;5025867;28;20482;-43
2021/06/28 01:12:25;;;;;;;13.02;10.93;;;16.30;99.90;;;;;;5017198;28;20180;-43
2021/06/28 01:14:52;;;;;;;15.35;10.23;;;16.30;99.90;;;;;;5016834;28;20049;-43
2021/06/28 01:17:22;;;;;;;13.05;10.55;;;16.30;99.90;;;;;;5013864;28;20557;-43
2021/06/28 01:20:13;;;;;;;14.00;10.75;;;16.30;99.90;;;;;;5025579;28;20073;-43
2021/06/28 01:22:42;;;;;;;12.73;10.75;;;16.30;99.90;;;;;;5025406;28;20045;-42
2021/06/28 01:25:12;;;;;;;12.98;10.40;;;16.30;99.90;;;;;;5026133;28;20045;-43
2021/06/28 01:27:39;;;;;;;14.00;10.73;;;16.30;99.90;;;;;;5023639;28;20061;-43
2021/06/28 01:30:11;;;;;;;15.40;11.23;;;16.30;99.90;;;;;;5025392;28;20052;-43
2021/06/28 01:32:38;;;;;;;13.07;10.50;;;16.30;99.90;;;;;;5023672;28;20072;-42
2021/06/28 01:35:05;;;;;;;13.43;11.13;;;16.30;99.90;;;;;;5006751;28;20049;-43
2021/06/28 01:37:31;;;;;;;13.50;10.90;;;16.20;99.90;;;;;;5016078;28;20101;-44
2021/06/28 01:40:01;;;;;;;14.07;10.93;;;16.30;99.90;;;;;;5024161;28;20104;-42
2021/06/28 01:42:28;;;;;;;13.95;11.38;;;16.30;99.90;;;;;;5025075;28;20049;-43
2021/06/28 01:44:56;;;;;;;15.20;11.82;;;16.30;99.90;;;;;;5025729;28;20038;-44
2021/06/28 01:47:23;;;;;;;13.23;10.02;;;16.30;99.90;;;;;;5005146;28;20057;-44
2021/06/28 01:49:49;;;;;;;14.43;11.63;;;16.40;99.90;;;;;;5031603;28;20052;-44
2021/06/28 01:52:15;;;;;;;12.77;11.02;;;16.30;99.90;;;;;;5024427;28;20057;-43
2021/06/28 01:54:42;;;;;;;12.50;11.20;;;16.30;99.90;;;;;;5023993;28;20048;-43
2021/06/28 01:57:08;;;;;;;14.38;10.52;;;16.40;99.90;;;;;;5025587;28;20060;-43
2021/06/28 01:59:37;;;;;;;12.73;11.18;;;16.40;99.90;;;;;;5022073;28;20063;-43
2021/06/28 02:02:04;;;;;;;16.58;12.02;;;16.40;99.90;;;;;;5010301;28;20525;-42
2021/06/28 02:04:34;;;;;;;14.18;11.13;;;16.40;99.90;;;;;;5010900;28;20417;-44
2021/06/28 02:07:00;;;;;;;16.85;11.80;;;16.30;99.90;;;;;;5024445;28;20068;-43
2021/06/28 02:09:30;;;;;;;16.35;11.88;;;16.30;99.90;;;;;;5024937;28;20033;-43
2021/06/28 02:11:56;;;;;;;15.80;11.73;;;16.30;99.90;;;;;;5022214;28;20084;-43
2021/06/28 02:14:25;;;;;;;13.23;11.70;;;16.30;99.90;;;;;;5025214;28;20049;-42
2021/06/28 02:16:51;;;;;;;12.52;11.07;;;16.30;99.90;;;;;;5025819;28;20434;-42
2021/06/28 02:19:20;;;;;;;14.13;11.60;;;16.30;99.90;;;;;;5023855;28;20489;-43
2021/06/28 02:21:48;;;;;;;15.82;12.40;;;16.40;99.90;;;;;;5021990;28;20666;-43
2021/06/28 02:24:15;;;;;;;13.80;11.80;;;16.30;99.90;;;;;;5023778;28;20509;-45
2021/06/28 02:26:43;;;;;;;14.85;11.80;;;16.40;99.90;;;;;;5024157;28;20486;-42
2021/06/28 02:29:09;;;;;;;15.02;12.40;;;16.40;99.90;;;;;;5024323;28;20046;-43
2021/06/28 02:31:36;;;;;;;14.68;11.85;;;16.40;99.90;;;;;;5023205;28;20139;-43
2021/06/28 02:34:03;;;;;;;14.32;12.20;;;16.40;99.90;;;;;;5025331;28;20107;-43
2021/06/28 02:36:29;;;;;;;15.13;11.85;;;16.40;99.90;;;;;;5025377;28;20053;-42
2021/06/28 02:38:57;;;;;;;13.45;12.05;;;16.30;99.90;;;;;;5025002;28;20141;-43
2021/06/28 02:41:23;;;;;;;15.35;12.35;;;16.40;99.90;;;;;;5018122;28;20057;-42
2021/06/28 02:44:10;;;;;;;15.45;12.18;;;16.40;99.90;;;;;;5031286;28;20045;-42
2021/06/28 02:46:36;;;;;;;13.05;11.57;;;16.40;99.90;;;;;;5021261;28;20056;-44
2021/06/28 02:49:03;;;;;;;18.85;12.27;;;16.40;99.90;;;;;;5036255;28;20049;-43
2021/06/28 02:51:29;;;;;;;14.82;12.55;;;16.40;99.90;;;;;;5024677;28;20879;-44
2021/06/28 02:53:56;;;;;;;17.65;12.60;;;16.40;99.90;;;;;;5039454;28;20287;-44
2021/06/28 02:56:22;;;;;;;14.35;12.85;;;16.40;99.90;;;;;;5045927;28;20118;-44
2021/06/28 02:58:56;;;;;;;16.33;12.30;;;16.40;99.90;;;;;;5046032;28;20048;-43
2021/06/28 03:01:25;;;;;;;14.30;12.23;;;16.40;99.90;;;;;;5046275;28;20505;-42
2021/06/28 03:03:52;;;;;;;17.17;12.95;;;16.40;99.90;;;;;;5038996;28;20131;-43
2021/06/28 03:06:19;;;;;;;16.10;13.02;;;16.40;99.90;;;;;;5025829;28;20188;-42
2021/06/28 03:08:47;;;;;;;17.90;13.10;;;16.40;99.90;;;;;;5038288;28;20053;-43
2021/06/28 03:11:15;;;;;;;17.48;13.52;;;16.40;99.90;;;;;;5046348;28;20417;-45
2021/06/28 03:13:42;;;;;;;19.02;12.50;;;16.40;99.90;;;;;;5044017;28;20045;-43
2021/06/28 03:16:08;;;;;;;15.77;12.68;;;16.40;99.90;;;;;;5041539;28;20571;-43
2021/06/28 03:18:35;;;;;;;14.02;12.23;;;16.50;99.90;;;;;;5045249;28;20052;-43
2021/06/28 03:21:02;;;;;;;14.15;12.30;;;16.40;99.90;;;;;;5029384;28;20470;-42
2021/06/28 03:23:29;;;;;;;14.63;12.45;;;16.40;99.90;;;;;;5027406;28;20099;-43
2021/06/28 03:25:56;;;;;;;14.93;12.25;;;16.40;99.90;;;;;;5024836;28;20057;-43
2021/06/28 03:28:22;;;;;;;16.55;13.35;;;16.50;99.90;;;;;;5028255;28;20053;-42
2021/06/28 03:30:50;;;;;;;17.00;12.77;;;16.50;99.90;;;;;;5028844;28;20156;-44
2021/06/28 03:33:17;;;;;;;16.20;13.05;;;16.50;99.90;;;;;;5029432;28;20581;-44
2021/06/28 03:35:43;;;;;;;15.02;12.77;;;16.50;99.90;;;;;;5032628;28;20381;-43
2021/06/28 03:38:10;;;;;;;14.20;12.20;;;16.50;99.90;;;;;;5027647;28;20058;-42
2021/06/28 03:40:36;;;;;;;15.88;12.93;;;16.60;99.90;;;;;;5027851;28;20496;-45
2021/06/28 03:43:06;;;;;;;19.45;12.85;;;16.60;99.90;;;;;;5023449;28;20132;-43
2021/06/28 03:45:33;;;;;;;16.45;13.02;;;16.60;99.90;;;;;;5026863;28;20047;-43
2021/06/28 03:47:59;;;;;;;14.32;12.52;;;16.60;99.90;;;;;;5026567;28;20046;-42
2021/06/28 03:50:26;;;;;;;13.80;12.25;;;16.60;99.90;;;;;;5034633;28;20045;-43
2021/06/28 03:52:52;;;;;;;16.60;12.65;;;16.60;99.90;;;;;;5026202;28;20054;-43
2021/06/28 03:55:19;;;;;;;16.52;11.65;;;16.60;99.90;;;;;;5027609;28;20409;-43
2021/06/28 03:57:46;;;;;;;13.25;11.85;;;16.70;99.90;;;;;;5026671;28;20054;-44
2021/06/28 04:00:19;;;;;;;16.17;12.23;;;16.70;99.90;;;;;;5028642;28;20141;-44
2021/06/28 04:02:46;;;;;;;13.35;11.88;;;16.70;99.90;;;;;;5023763;28;20057;-43
2021/06/28 04:05:17;;;;;;;14.90;12.43;;;16.70;99.90;;;;;;5035083;28;20045;-43
2021/06/28 04:07:43;;;;;;;14.15;12.25;;;16.70;99.90;;;;;;5023853;28;20053;-44
2021/06/28 04:10:10;;;;;;;14.32;12.05;;;16.80;99.90;;;;;;5024006;28;20378;-42
2021/06/28 04:12:37;;;;;;;16.45;12.68;;;16.80;99.90;;;;;;5020239;28;20045;-45
2021/06/28 04:15:05;;;;;;;13.75;11.43;;;16.80;99.90;;;;;;5027249;28;20052;-42
2021/06/28 04:17:32;;;;;;;13.30;11.90;;;16.80;99.90;;;;;;5026531;28;20057;-43
2021/06/28 04:19:58;;;;;;;12.60;11.30;;;16.80;99.90;;;;;;5025127;28;20065;-47
2021/06/28 04:22:24;;;;;;;13.88;11.20;;;16.90;99.90;;;;;;5025317;28;20042;-42
2021/06/28 04:24:51;;;;;;;14.70;12.38;;;16.90;99.90;;;;;;5023641;28;20049;-43
2021/06/28 04:27:17;;;;;;;15.30;12.43;;;16.90;99.90;;;;;;5028168;28;20033;-44
2021/06/28 04:29:43;;;;;;;14.35;11.07;;;16.80;99.90;;;;;;5008931;28;20053;-43
2021/06/28 04:32:09;;;;;;;15.30;12.57;;;16.80;99.90;;;;;;5018741;28;20046;-43
2021/06/28 04:34:35;;;;;;;14.20;10.88;;;16.80;99.90;;;;;;5026540;28;20083;-42
2021/06/28 04:37:02;;;;;;;16.20;12.40;;;16.80;99.90;;;;;;5027864;28;20050;-42
2021/06/28 04:39:28;;;;;;;14.00;12.20;;;16.80;99.90;;;;;;5022895;28;20061;-42
2021/06/28 04:41:54;;;;;;;14.40;11.93;;;16.70;99.90;;;;;;5024249;28;20041;-43
2021/06/28 04:44:20;;;;;;;15.27;12.82;;;16.70;99.90;;;;;;5025255;28;20377;-42
2021/06/28 04:46:46;;;;;;;13.50;10.90;;;16.70;99.90;;;;;;5027199;28;20045;-48
2021/06/28 04:49:13;;;;;;;17.30;12.55;;;16.70;99.90;;;;;;5023463;28;20046;-43
2021/06/28 04:51:40;;;;;;;13.10;11.07;;;16.70;99.90;;;;;;5024776;28;20071;-45
2021/06/28 04:54:06;;;;;;;14.40;12.38;;;16.80;99.90;;;;;;5024416;28;20702;-46
2021/06/28 04:56:33;;;;;;;13.60;12.15;;;16.90;99.90;;;;;;5025770;28;20037;-45
2021/06/28 04:58:59;;;;;;;15.43;12.05;;;17.00;99.90;;;;;;5024281;28;20419;-44
2021/06/28 05:01:28;;;;;;;14.18;12.73;;;16.90;99.90;;;;;;5027429;28;20390;-47
2021/06/28 05:03:54;;;;;;;13.45;11.95;;;17.00;99.90;;;;;;5031804;28;20115;-46
2021/06/28 05:06:21;;;;;;;15.10;11.82;;;17.00;99.90;;;;;;5026165;28;20156;-45
2021/06/28 05:08:47;;;;;;;16.00;11.90;;;17.00;99.90;;;;;;5022229;28;20056;-46
2021/06/28 05:11:13;;;;;;;12.95;11.43;;;17.00;99.90;;;;;;5025026;28;20615;-47
2021/06/28 05:13:39;;;;;;;13.30;11.18;;;17.00;99.90;;;;;;5023154;28;20045;-45
2021/06/28 05:16:06;;;;;;;13.88;12.05;;;17.00;99.90;;;;;;5025022;28;20052;-45
2021/06/28 05:18:32;;;;;;;13.27;11.23;;;17.10;99.90;;;;;;5026627;28;20053;-44
2021/06/28 05:20:58;;;;;;;12.73;11.43;;;17.20;99.90;;;;;;5025390;28;20046;-45
2021/06/28 05:23:24;;;;;;;14.70;13.05;;;17.20;99.90;;;;;;5023911;28;20049;-47
2021/06/28 05:25:51;;;;;;;14.10;11.57;;;17.20;99.90;;;;;;5024992;28;20203;-44
2021/06/28 05:28:17;;;;;;;13.30;12.00;;;17.30;99.90;;;;;;5016954;28;20065;-47
2021/06/28 05:30:46;;;;;;;14.02;11.82;;;17.30;99.90;;;;;;5017913;28;20050;-46
2021/06/28 05:33:13;;;;;;;15.10;11.48;;;17.30;99.90;;;;;;5027002;28;20053;-45
2021/06/28 05:35:39;;;;;;;13.20;11.27;;;17.40;99.90;;;;;;5024099;28;20063;-44
2021/06/28 05:38:05;;;;;;;13.55;12.15;;;17.40;99.90;;;;;;5026504;28;20057;-46
2021/06/28 05:40:31;;;;;;;12.55;11.30;;;17.50;99.90;;;;;;5026785;28;20056;-46
2021/06/28 05:42:58;;;;;;;13.05;11.73;;;17.50;99.90;;;;;;5021201;28;20046;-46
2021/06/28 05:45:25;;;;;;;12.60;11.13;;;17.60;99.90;;;;;;5024337;28;20103;-48
2021/06/28 05:47:52;;;;;;;13.52;12.13;;;17.70;99.90;;;;;;5025729;28;20061;-44
2021/06/28 05:50:21;;;;;;;12.20;11.02;;;17.80;99.90;;;;;;5041153;28;20057;-47
2021/06/28 05:52:50;;;;;;;14.80;13.05;;;17.80;99.90;;;;;;5023439;28;20892;-44
2021/06/28 05:55:16;;;;;;;13.48;12.05;;;18.00;99.90;;;;;;5025202;28;20067;-48
2021/06/28 05:57:43;;;;;;;13.73;10.90;;;18.00;99.90;;;;;;5024072;28;20049;-48
2021/06/28 06:00:12;;;;;;;13.10;11.82;;;18.00;99.90;;;;;;5024439;28;20056;-43
2021/06/28 06:02:41;;;;;;;;;;;18.00;99.90;;;;;;5025741;28;20053;-45
2021/06/28 06:05:08;;;;;;;12.43;11.20;;;18.00;99.90;;;;;;5026005;28;19975;-47
2021/06/28 06:07:36;;;;;;;13.73;11.98;;;18.10;99.90;;;;;;5028888;28;20050;-45
2021/06/28 06:10:09;;;;;;;11.60;10.43;;;18.30;99.90;;;;;;5014270;28;20095;-44
2021/06/28 06:12:35;;;;;;;12.18;10.98;;;18.60;99.90;;;;;;5013678;28;20131;-42
2021/06/28 06:15:09;;;;;;;21.67;19.48;;;19.00;99.90;;;;;;5014792;28;20076;-40
2021/06/28 06:17:37;;;;;;;15.55;13.27;;;19.50;99.90;;;;;;5020372;28;20536;-41
2021/06/28 06:20:05;;;;;;;58.20;52.42;;;19.60;99.90;;;;;;5033810;28;20072;-41
2021/06/28 06:22:31;;;;;;;24.13;19.23;;;19.90;99.90;;;;;;5027011;28;20778;-42
2021/06/28 06:25:00;;;;;;;28.17;25.42;;;20.20;99.90;;;;;;5031500;28;20053;-40
2021/06/28 06:27:27;;;;;;;16.27;14.52;;;20.50;99.90;;;;;;5025578;28;20037;-40
2021/06/28 06:29:53;;;;;;;27.48;24.83;;;20.80;99.90;;;;;;5026556;28;20038;-41
2021/06/28 06:32:20;;;;;;;20.38;17.90;;;20.90;99.90;;;;;;5026971;28;20046;-41
2021/06/28 06:34:46;;;;;;;16.38;14.60;;;21.00;99.90;;;;;;5026670;28;20539;-43
2021/06/28 06:37:12;;;;;;;11.65;10.52;;;21.00;99.90;;;;;;5026604;28;20478;-40
2021/06/28 06:39:38;;;;;;;101.65;91.57;;;21.30;99.90;;;;;;5028832;28;20060;-41
2021/06/28 06:42:05;;;;;;;10.90;9.65;;;21.40;99.90;;;;;;5024830;28;20057;-43
2021/06/28 06:44:31;;;;;;;24.88;22.35;;;21.70;99.90;;;;;;5023548;28;20060;-41
2021/06/28 06:46:57;;;;;;;50.42;45.28;;;21.90;99.90;;;;;;5020375;28;20069;-42
2021/06/28 06:49:25;;;;;;;14.52;12.93;;;22.10;99.90;;;;;;5024300;28;20041;-42
2021/06/28 06:51:52;;;;;;;12.38;10.70;;;22.20;99.90;;;;;;5022573;28;20045;-42
2021/06/28 06:54:18;;;;;;;15.60;13.68;;;22.40;99.90;;;;;;5026182;28;20053;-42
2021/06/28 06:56:45;;;;;;;11.52;10.32;;;22.50;99.90;;;;;;5026497;28;20061;-42
2021/06/28 06:59:15;;;;;;;28.58;25.80;;;22.80;99.90;;;;;;5026340;28;20073;-42
2021/06/28 07:01:54;;;;;;;38.00;34.15;;;23.00;99.90;;;;;;5024199;28;20065;-42
2021/06/28 07:04:21;;;;;;;12.38;11.07;;;22.90;99.90;;;;;;5029479;28;20044;-43
2021/06/28 07:06:47;;;;;;;9.63;8.68;;;23.30;99.90;;;;;;5023966;28;20440;-42
2021/06/28 07:09:13;;;;;;;10.32;9.32;;;23.30;99.90;;;;;;5025144;28;20056;-42
2021/06/28 07:11:39;;;;;;;11.40;9.13;;;23.40;99.70;;;;;;5029026;28;20091;-46
2021/06/28 07:14:05;;;;;;;10.25;9.23;;;23.60;99.90;;;;;;5024858;28;20095;-49
2021/06/28 07:16:32;;;;;;;10.80;9.80;;;23.60;99.80;;;;;;5025655;28;20654;-49
2021/06/28 07:19:01;;;;;;;9.40;7.85;;;23.80;99.20;;;;;;5024357;28;20046;-48
2021/06/28 07:21:28;;;;;;;10.93;8.77;;;24.00;98.60;;;;;;5031687;28;21303;-45
2021/06/28 07:23:56;;;;;;;11.43;10.32;;;23.90;98.90;;;;;;5023694;28;20084;-48
2021/06/28 07:26:25;;;;;;;9.15;8.18;;;23.90;98.20;;;;;;5014006;28;20049;-48
2021/06/28 07:28:54;;;;;;;10.15;9.25;;;24.10;98.00;;;;;;5022321;28;20066;-48
2021/06/28 07:31:21;;;;;;;8.45;7.53;;;24.30;97.40;;;;;;5024359;28;20140;-47
2021/06/28 07:33:49;;;;;;;8.25;7.45;;;24.50;97.90;;;;;;5023426;28;20081;-45
2021/06/28 07:36:16;;;;;;;9.73;8.82;;;24.60;97.30;;;;;;5024636;28;20489;-47
2021/06/28 07:38:43;;;;;;;9.80;8.85;;;25.00;97.70;;;;;;5026223;28;20057;-47
2021/06/28 07:41:11;;;;;;;28.80;25.88;;;25.10;96.60;;;;;;5022530;28;20050;-46
2021/06/28 07:43:38;;;;;;;32.42;29.38;;;25.30;95.10;;;;;;5022709;28;20033;-47
2021/06/28 07:46:05;;;;;;;19.10;17.40;;;25.40;95.20;;;;;;5027508;28;20572;-48
2021/06/28 07:48:32;;;;;;;19.13;17.38;;;25.70;93.20;;;;;;5027352;28;20390;-48
2021/06/28 07:50:58;;;;;;;14.45;13.00;;;25.60;93.10;;;;;;5025152;28;20049;-49
2021/06/28 07:53:27;;;;;;;9.55;8.50;;;25.60;93.30;;;;;;5028757;28;20053;-50
2021/06/28 07:55:53;;;;;;;15.30;13.70;;;25.90;92.40;;;;;;5035131;28;20041;-47
2021/06/28 07:58:19;;;;;;;17.10;15.65;;;26.20;93.30;;;;;;5028249;28;20067;-47
2021/06/28 08:00:46;;;;;;;12.30;11.10;;;26.20;92.30;;;;;;5023157;28;20051;-47
2021/06/28 08:03:13;;;;;;;12.43;11.23;;;26.30;90.50;;;;;;5026735;28;20132;-48
2021/06/28 08:05:41;;;;;;;12.80;11.50;;;26.40;90.40;;;;;;5029473;28;20041;-46
2021/06/28 08:08:07;;;;;;;10.10;8.88;;;26.40;90.50;;;;;;5028260;28;20505;-49
2021/06/28 08:10:34;;;;;;;8.40;7.60;;;26.60;89.80;;;;;;5035664;28;20077;-48
2021/06/28 08:13:00;;;;;;;10.18;9.13;;;26.60;87.40;;;;;;5028711;28;20182;-49
2021/06/28 08:15:26;;;;;;;11.88;10.50;;;26.80;83.30;;;;;;5026857;28;20602;-50
2021/06/28 08:17:56;;;;;;;10.20;9.15;;;26.70;84.40;;;;;;5027258;28;20053;-45
2021/06/28 08:20:24;;;;;;;8.88;7.95;;;26.70;83.40;;;;;;5029279;28;20033;-52
2021/06/28 08:22:51;;;;;;;13.43;11.57;;;26.80;84.10;;;;;;5025781;28;20057;-50
2021/06/28 08:25:19;;;;;;;14.60;12.88;;;27.00;84.20;;;;;;5027769;28;20052;-47
2021/06/28 08:27:45;;;;;;;23.75;21.55;;;27.20;81.40;;;;;;5026581;28;20049;-50
2021/06/28 08:30:13;;;;;;;25.77;23.33;;;27.10;77.80;;;;;;5026781;28;20057;-49
2021/06/28 08:32:39;;;;;;;13.52;12.27;;;27.30;80.20;;;;;;5020416;28;20049;-47
2021/06/28 08:35:06;;;;;;;8.48;7.57;;;27.70;76.90;;;;;;5025696;28;20049;-48
2021/06/28 08:37:37;;;;;;;7.28;6.13;;;27.60;76.50;;;;;;5019739;28;20111;-50
2021/06/28 08:40:06;;;;;;;9.98;8.98;;;27.70;80.80;;;;;;5039870;28;20666;-47
2021/06/28 08:42:32;;;;;;;14.38;13.02;;;28.00;79.30;;;;;;5025397;28;20083;-48
2021/06/28 08:44:59;;;;;;;8.98;6.78;;;28.00;75.90;;;;;;5026250;28;20049;-46
2021/06/28 08:47:27;;;;;;;8.15;7.35;;;28.10;76.60;;;;;;5027400;28;20061;-48
2021/06/28 08:49:54;;;;;;;21.05;19.20;;;28.20;77.30;;;;;;5027746;28;20727;-47
2021/06/28 08:52:20;;;;;;;14.18;12.75;;;28.50;76.90;;;;;;5025012;28;20081;-48
2021/06/28 08:54:47;;;;;;;72.43;66.07;;;28.80;76.30;;;;;;5026779;28;20401;-48
2021/06/28 08:57:13;;;;;;;17.60;15.90;;;29.10;75.10;;;;;;5023537;28;20052;-47
2021/06/28 08:59:42;;;;;;;18.20;16.42;;;29.40;75.50;;;;;;5025143;28;20104;-48
2021/06/28 09:02:09;;;;;;;10.17;8.83;;;29.30;74.00;;;;;;5024822;28;20049;-48
2021/06/28 09:04:35;;;;;;;7.95;7.13;;;29.10;70.70;;;;;;5026244;28;20880;-48
2021/06/28 09:07:21;;;;;;;8.52;7.65;;;28.90;71.20;;;;;;5024880;28;20054;-46
2021/06/28 09:09:48;;;;;;;8.10;7.18;;;29.20;70.90;;;;;;5025824;28;20497;-48
2021/06/28 09:12:16;;;;;;;15.48;14.13;;;29.20;71.40;;;;;;5025616;28;20144;-48
2021/06/28 09:14:46;;;;;;;11.63;10.52;;;29.50;70.70;;;;;;5021651;28;20045;-48
2021/06/28 09:17:37;;;;;;;8.15;7.15;;;29.70;67.90;;;;;;5022602;28;20087;-48
2021/06/28 09:20:13;;;;;;;;;;;29.80;65.60;;;;;;5028375;28;20036;-49
2021/06/28 09:22:41;;;;;;;9.55;8.20;;;29.80;70.10;;;;;;5028922;28;19921;-45
2021/06/28 09:25:09;;;;;;;8.65;6.90;;;29.90;69.20;;;;;;5029138;28;20041;-47
2021/06/28 09:27:43;;;;;;;8.20;6.22;;;30.10;68.50;;;;;;5025312;28;20041;-46
2021/06/28 09:30:20;;;;;;;9.25;8.30;;;30.20;68.00;;;;;;5032742;28;20041;-47
2021/06/28 09:32:54;;;;;;;28.83;26.45;;;30.30;66.50;;;;;;5018908;28;20061;-45
2021/06/28 09:35:36;;;;;;;10.68;9.65;;;30.60;64.30;;;;;;5020330;28;20041;-46
2021/06/28 09:38:27;;;;;;;7.13;6.47;;;30.90;65.90;;;;;;5025439;28;20041;-48
2021/06/28 09:40:53;;;;;;;8.40;7.68;;;30.90;60.50;;;;;;5027738;28;20100;-49
2021/06/28 09:43:27;;;;;;;9.02;8.07;;;30.90;60.70;;;;;;5021865;28;20049;-44
2021/06/28 09:45:56;;;;;;;6.82;5.53;;;30.90;60.90;;;;;;5030674;28;20449;-42
2021/06/28 09:48:30;;;;;;;8.03;5.67;;;30.60;60.40;;;;;;5025332;28;20061;-41
2021/06/28 09:51:17;;;;;;;8.48;6.20;;;30.60;59.30;;;;;;5023364;28;20124;-41
2021/06/28 09:53:44;;;;;;;6.22;5.63;;;30.60;62.90;;;;;;5024013;28;20409;-42
2021/06/28 09:56:51;;;;;;;7.93;6.82;;;30.90;64.00;;;;;;5022611;28;20052;-43
2021/06/28 09:59:31;;;;;;;6.63;5.90;;;31.10;59.70;;;;;;4983541;28;20057;-41
2021/06/28 10:02:24;;;;;;;7.47;5.80;;;31.20;60.30;;;;;;5002690;28;20572;-42
2021/06/28 10:05:03;;;;;;;12.55;10.88;;;31.20;59.80;;;;;;5005358;28;20053;-41
2021/06/28 10:07:35;;;;;;;22.02;19.98;;;31.70;60.10;;;;;;5006845;28;20048;-44
2021/06/28 10:10:13;;;;;;;7.00;5.70;;;31.80;59.70;;;;;;5002172;28;20046;-42
2021/06/28 10:12:42;;;;;;;10.43;9.43;;;31.70;55.70;;;;;;5005219;28;20050;-42
2021/06/28 10:15:11;;;;;;;8.32;7.53;;;31.80;55.20;;;;;;5002581;28;20133;-44
2021/06/28 10:17:38;;;;;;;8.10;6.95;;;31.70;53.50;;;;;;5001891;28;20049;-41
2021/06/28 10:20:07;;;;;;;7.80;7.07;;;31.50;56.20;;;;;;5002441;28;20046;-43
2021/06/28 10:22:35;;;;;;;6.57;5.95;;;31.10;55.70;;;;;;5000357;28;20061;-41
2021/06/28 10:25:03;;;;;;;6.30;5.57;;;31.10;56.20;;;;;;5006225;28;20045;-44
2021/06/28 10:27:30;;;;;;;6.57;5.97;;;31.60;56.90;;;;;;5006778;28;20042;-44
2021/06/28 10:30:00;;;;;;;6.53;4.88;;;31.70;56.00;;;;;;5010362;28;20048;-43
2021/06/28 10:32:31;;;;;;;7.30;6.20;;;31.90;55.80;;;;;;5024846;28;20047;-43
2021/06/28 10:35:00;;;;;;;;;;;31.90;55.40;;;;;;5026658;28;20052;-43
2021/06/28 10:37:33;;;;;;;7.13;6.43;;;32.50;54.70;;;;;;5026472;28;19921;-47
2021/06/28 10:40:04;;;;;;;12.98;11.85;;;32.30;52.30;;;;;;5026528;28;20049;-45
2021/06/28 10:42:32;;;;;;;5.85;5.35;;;32.50;51.20;;;;;;5027303;28;20041;-45
2021/06/28 10:45:02;;;;;;;7.65;5.18;;;32.50;51.80;;;;;;5026090;28;20048;-44
2021/06/28 10:47:31;;;;;;;5.68;5.18;;;32.40;51.00;;;;;;5031802;28;20054;-43
2021/06/28 10:50:01;;;;;;;7.93;7.13;;;32.00;52.30;;;;;;5026682;28;20037;-42
2021/06/28 10:52:36;;;;;;;8.85;8.07;;;32.00;53.80;;;;;;5026417;28;20128;-42
2021/06/28 10:55:22;;;;;;;9.40;8.60;;;32.20;53.30;;;;;;5023790;28;20045;-43
2021/06/28 10:58:35;;;;;;;10.73;9.80;;;32.60;56.00;;;;;;5021951;28;20072;-46
2021/06/28 11:01:41;;;;;;;7.32;5.43;;;32.90;51.50;;;;;;5018274;28;20497;-45
2021/06/28 11:04:29;;;;;;;4.75;4.25;;;33.10;49.20;;;;;;5024564;28;20045;-47
2021/06/28 11:07:17;;;;;;;19.80;18.17;;;32.50;47.90;;;;;;5013057;28;20112;-43
2021/06/28 11:10:04;;;;;;;7.72;6.97;;;32.10;48.40;;;;;;5025254;28;20041;-42
2021/06/28 11:12:54;;;;;;;10.07;9.18;;;32.40;49.70;;;;;;5030446;28;20041;-44
2021/06/28 11:15:43;;;;;;;6.97;6.32;;;32.40;50.30;;;;;;5030037;28;20041;-42
2021/06/28 11:18:29;;;;;;;9.02;6.97;;;32.60;51.80;;;;;;5025572;28;20038;-44
2021/06/28 11:21:37;;;;;;;6.75;5.97;;;33.10;52.30;;;;;;5027924;28;20052;-45
2021/06/28 11:24:10;;;;;;;5.68;5.07;;;32.90;48.80;;;;;;5027151;28;20482;-43
2021/06/28 11:26:40;;;;;;;9.52;8.57;;;33.40;51.60;;;;;;5030647;28;20374;-44
2021/06/28 11:29:06;;;;;;;7.75;6.95;;;33.80;51.90;;;;;;5027972;28;20737;-45
2021/06/28 11:31:32;;;;;;;5.13;4.35;;;33.80;50.70;;;;;;5028627;28;20045;-43
2021/06/28 11:34:00;;;;;;;6.43;5.05;;;34.20;48.50;;;;;;5030300;28;20132;-44
2021/06/28 11:36:26;;;;;;;18.08;16.48;;;34.00;47.80;;;;;;5008542;28;20041;-47
2021/06/28 11:38:54;;;;;;;7.22;6.32;;;34.10;47.20;;;;;;5014586;28;20078;-48
2021/06/28 11:41:22;;;;;;;11.48;10.43;;;34.10;46.80;;;;;;4991842;28;20046;-45
2021/06/28 11:43:52;;;;;;;6.53;5.93;;;34.30;48.10;;;;;;5009860;28;20045;-46
2021/06/28 11:46:26;;;;;;;44.00;40.50;;;34.10;48.10;;;;;;5004957;28;20112;-42
2021/06/28 11:49:09;;;;;;;5.45;4.70;;;33.40;47.80;;;;;;5012231;28;20383;-47
2021/06/28 11:51:36;;;;;;;12.93;11.80;;;32.60;48.20;;;;;;5008088;28;20066;-47
2021/06/28 11:54:06;;;;;;;8.57;7.72;;;32.40;49.50;;;;;;5010864;28;20812;-47
2021/06/28 11:56:37;;;;;;;7.88;7.18;;;32.00;49.80;;;;;;5010196;28;20093;-46
2021/06/28 11:59:09;;;;;;;6.10;5.45;;;31.70;50.40;;;;;;5010071;28;20394;-49
2021/06/28 12:01:38;;;;;;;5.97;5.38;;;31.40;52.00;;;;;;5005746;28;20051;-44
2021/06/28 12:04:06;;;;;;;5.72;5.22;;;31.10;51.30;;;;;;4990470;28;20138;-43
2021/06/28 12:06:37;;;;;;;5.97;5.38;;;30.90;51.40;;;;;;4996392;28;20502;-45
2021/06/28 12:09:07;;;;;;;8.48;6.68;;;30.70;54.00;;;;;;5005049;28;20042;-45
2021/06/28 12:11:35;;;;;;;;;;;30.70;55.10;;;;;;5009655;28;20057;-43
2021/06/28 12:14:01;;;;;;;6.88;6.28;;;30.40;55.00;;;;;;5011401;28;19944;-45
2021/06/28 12:16:28;;;;;;;8.50;7.43;;;30.30;55.30;;;;;;5013663;28;20045;-47
2021/06/28 12:19:08;;;;;;;8.23;6.32;;;30.50;55.50;;;;;;4990242;28;20077;-45
2021/06/28 12:21:38;;;;;;;9.23;8.40;;;30.80;56.40;;;;;;4988945;28;20057;-48
2021/06/28 12:24:14;;;;;;;9.02;8.05;;;31.00;54.10;;;;;;4990835;28;20053;-46
2021/06/28 12:26:58;;;;;;;6.95;6.25;;;31.10;54.70;;;;;;4991561;28;20042;-47
2021/06/28 12:29:30;;;;;;;8.75;6.05;;;31.00;54.70;;;;;;4992301;28;20038;-45
2021/06/28 12:32:24;;;;;;;6.78;6.13;;;31.40;57.10;;;;;;5003306;28;20111;-45
2021/06/28 12:34:55;;;;;;;7.85;7.15;;;32.30;54.40;;;;;;5010021;28;20061;-47
2021/06/28 12:37:26;;;;;;;;;;;32.10;54.50;;;;;;5009399;28;20625;-46
2021/06/28 12:39:53;;;;;;;;;;;31.80;52.80;;;;;;5010102;28;19944;-45
2021/06/28 12:42:22;;;;;;;7.40;6.20;;;31.30;53.30;;;;;;5008918;28;20556;-43
2021/06/28 12:44:50;;;;;;;6.55;5.90;;;31.20;54.40;;;;;;5008062;28;20046;-46
2021/06/28 12:47:20;;;;;;;7.05;6.35;;;31.00;55.90;;;;;;5009203;28;20049;-45